sensor_id;sensor_type;location;lat;lon;timestamp;P1;durP1;ratioP1;P2;durP2;ratioP2
60239;SDS011;46102;39.012;-7.064;2023-01-01T00:01:05;10.05;;;6.18;;
60239;SDS011;46102;39.012;-7.064;2023-01-01T00:03:07;10.90;;;6.07;;
60239;SDS011;46102;39.012;-7.064;2023-01-01T00:05:07;11.05;;;7.07;;
60239;SDS011;46102;39.012;-7.064;2023-01-01T00:07:08;9.30;;;6.15;;
60239;SDS011;46102;39.012;-7.064;2023-01-01T00:09:09;9.20;;;6.28;;
60239;SDS011;46102;39.012;-7.064;2023-01-01T00:11:28;10.98;;;5.45;;
60239;SDS011;46102;39.012;-7.064;2023-01-01T00:13:29;10.63;;;5.40;;
60239;SDS011;46102;39.012;-7.064;2023-01-01T00:15:30;13.27;;;5.00;;
60239;SDS011;46102;39.012;-7.064;2023-01-01T00:17:31;7.63;;;4.97;;
60239;SDS011;46102;39.012;-7.064;2023-01-01T00:19:32;14.80;;;8.20;;
60239;SDS011;46102;39.012;-7.064;2023-01-01T00:21:32;15.73;;;6.57;;
60239;SDS011;46102;39.012;-7.064;2023-01-01T00:23:33;9.45;;;6.00;;
60239;SDS011;46102;39.012;-7.064;2023-01-01T00:25:34;8.70;;;5.45;;
60239;SDS011;46102;39.012;-7.064;2023-01-01T00:27:35;10.65;;;4.63;;
60239;SDS011;46102;39.012;-7.064;2023-01-01T00:29:36;15.27;;;11.50;;
60239;SDS011;46102;39.012;-7.064;2023-01-01T00:31:36;19.55;;;11.93;;
60239;SDS011;46102;39.012;-7.064;2023-01-01T00:33:37;15.20;;;9.55;;
60239;SDS011;46102;39.012;-7.064;2023-01-01T00:35:38;12.93;;;9.65;;
60239;SDS011;46102;39.012;-7.064;2023-01-01T00:37:38;29.17;;;16.23;;
60239;SDS011;46102;39.012;-7.064;2023-01-01T00:39:39;28.40;;;13.82;;
60239;SDS011;46102;39.012;-7.064;2023-01-01T00:41:40;19.55;;;12.43;;
60239;SDS011;46102;39.012;-7.064;2023-01-01T00:43:41;21.52;;;11.63;;
60239;SDS011;46102;39.012;-7.064;2023-01-01T00:45:42;24.45;;;12.93;;
60239;SDS011;46102;39.012;-7.064;2023-01-01T00:47:46;30.35;;;15.55;;
60239;SDS011;46102;39.012;-7.064;2023-01-01T00:49:48;20.23;;;8.43;;
60239;SDS011;46102;39.012;-7.064;2023-01-01T00:51:48;12.30;;;7.13;;
60239;SDS011;46102;39.012;-7.064;2023-01-01T00:53:49;28.30;;;13.27;;
60239;SDS011;46102;39.012;-7.064;2023-01-01T00:55:50;16.52;;;6.38;;
60239;SDS011;46102;39.012;-7.064;2023-01-01T00:57:52;9.90;;;7.00;;
60239;SDS011;46102;39.012;-7.064;2023-01-01T00:59:52;11.40;;;6.13;;
60239;SDS011;46102;39.012;-7.064;2023-01-01T01:01:53;14.07;;;4.82;;
60239;SDS011;46102;39.012;-7.064;2023-01-01T01:03:54;8.68;;;4.40;;
60239;SDS011;46102;39.012;-7.064;2023-01-01T01:06:00;7.03;;;3.85;;
60239;SDS011;46102;39.012;-7.064;2023-01-01T01:08:11;8.13;;;5.30;;
60239;SDS011;46102;39.012;-7.064;2023-01-01T01:10:12;17.30;;;9.15;;
60239;SDS011;46102;39.012;-7.064;2023-01-01T01:12:13;23.33;;;12.00;;
60239;SDS011;46102;39.012;-7.064;2023-01-01T01:14:14;26.13;;;12.15;;
60239;SDS011;46102;39.012;-7.064;2023-01-01T01:18:19;21.00;;;9.75;;
60239;SDS011;46102;39.012;-7.064;2023-01-01T01:20:20;82.97;;;32.97;;
60239;SDS011;46102;39.012;-7.064;2023-01-01T01:22:21;97.10;;;36.88;;
60239;SDS011;46102;39.012;-7.064;2023-01-01T01:24:22;66.43;;;26.38;;
60239;SDS011;46102;39.012;-7.064;2023-01-01T01:26:23;41.40;;;17.60;;
60239;SDS011;46102;39.012;-7.064;2023-01-01T01:28:26;23.10;;;9.50;;
60239;SDS011;46102;39.012;-7.064;2023-01-01T01:30:27;13.60;;;6.40;;
60239;SDS011;46102;39.012;-7.064;2023-01-01T01:32:27;8.95;;;4.88;;
60239;SDS011;46102;39.012;-7.064;2023-01-01T01:34:28;15.98;;;6.90;;
60239;SDS011;46102;39.012;-7.064;2023-01-01T01:36:29;16.00;;;8.77;;
60239;SDS011;46102;39.012;-7.064;2023-01-01T01:38:30;16.05;;;8.93;;
60239;SDS011;46102;39.012;-7.064;2023-01-01T01:40:31;16.92;;;7.68;;
60239;SDS011;46102;39.012;-7.064;2023-01-01T01:42:32;24.38;;;10.20;;
60239;SDS011;46102;39.012;-7.064;2023-01-01T01:46:49;18.02;;;6.35;;
60239;SDS011;46102;39.012;-7.064;2023-01-01T01:48:51;12.13;;;6.95;;
60239;SDS011;46102;39.012;-7.064;2023-01-01T01:50:54;13.60;;;5.35;;
60239;SDS011;46102;39.012;-7.064;2023-01-01T01:54:56;10.25;;;5.40;;
60239;SDS011;46102;39.012;-7.064;2023-01-01T01:57:00;8.60;;;6.20;;
60239;SDS011;46102;39.012;-7.064;2023-01-01T01:59:04;10.48;;;5.03;;
60239;SDS011;46102;39.012;-7.064;2023-01-01T02:01:05;7.20;;;5.05;;
60239;SDS011;46102;39.012;-7.064;2023-01-01T02:03:20;9.60;;;4.55;;
60239;SDS011;46102;39.012;-7.064;2023-01-01T02:05:25;7.95;;;4.53;;
60239;SDS011;46102;39.012;-7.064;2023-01-01T02:07:27;10.05;;;5.93;;
60239;SDS011;46102;39.012;-7.064;2023-01-01T02:09:31;10.83;;;6.10;;
60239;SDS011;46102;39.012;-7.064;2023-01-01T02:11:31;19.30;;;6.22;;
60239;SDS011;46102;39.012;-7.064;2023-01-01T02:13:33;14.40;;;6.32;;
60239;SDS011;46102;39.012;-7.064;2023-01-01T02:15:35;23.13;;;9.30;;
60239;SDS011;46102;39.012;-7.064;2023-01-01T02:20:10;17.75;;;6.90;;
60239;SDS011;46102;39.012;-7.064;2023-01-01T02:24:33;25.95;;;13.15;;
60239;SDS011;46102;39.012;-7.064;2023-01-01T02:26:39;24.40;;;14.80;;
60239;SDS011;46102;39.012;-7.064;2023-01-01T02:31:00;14.38;;;8.23;;
60239;SDS011;46102;39.012;-7.064;2023-01-01T02:33:03;17.73;;;6.65;;
60239;SDS011;46102;39.012;-7.064;2023-01-01T02:35:13;24.52;;;9.05;;
60239;SDS011;46102;39.012;-7.064;2023-01-01T02:37:34;13.82;;;6.95;;
60239;SDS011;46102;39.012;-7.064;2023-01-01T02:39:36;11.85;;;6.15;;
60239;SDS011;46102;39.012;-7.064;2023-01-01T02:41:45;20.67;;;9.57;;
60239;SDS011;46102;39.012;-7.064;2023-01-01T02:43:50;26.15;;;13.27;;
60239;SDS011;46102;39.012;-7.064;2023-01-01T02:45:54;19.13;;;11.65;;
60239;SDS011;46102;39.012;-7.064;2023-01-01T02:47:55;13.30;;;5.82;;
60239;SDS011;46102;39.012;-7.064;2023-01-01T02:49:58;5.45;;;4.40;;
60239;SDS011;46102;39.012;-7.064;2023-01-01T02:52:10;10.25;;;4.78;;
60239;SDS011;46102;39.012;-7.064;2023-01-01T02:54:43;8.80;;;4.50;;
60239;SDS011;46102;39.012;-7.064;2023-01-01T02:59:09;9.75;;;5.03;;
60239;SDS011;46102;39.012;-7.064;2023-01-01T03:01:52;10.80;;;4.75;;
60239;SDS011;46102;39.012;-7.064;2023-01-01T03:04:07;7.90;;;4.50;;
60239;SDS011;46102;39.012;-7.064;2023-01-01T03:10:54;28.23;;;11.23;;
60239;SDS011;46102;39.012;-7.064;2023-01-01T03:17:54;9.45;;;5.90;;
60239;SDS011;46102;39.012;-7.064;2023-01-01T03:20:03;5.90;;;4.18;;
60239;SDS011;46102;39.012;-7.064;2023-01-01T03:22:11;17.35;;;6.72;;
60239;SDS011;46102;39.012;-7.064;2023-01-01T03:24:29;15.05;;;6.18;;
60239;SDS011;46102;39.012;-7.064;2023-01-01T03:26:34;9.30;;;4.93;;
60239;SDS011;46102;39.012;-7.064;2023-01-01T03:28:39;16.13;;;4.60;;
60239;SDS011;46102;39.012;-7.064;2023-01-01T03:30:45;11.73;;;3.80;;
60239;SDS011;46102;39.012;-7.064;2023-01-01T03:32:52;9.77;;;3.08;;
60239;SDS011;46102;39.012;-7.064;2023-01-01T03:35:00;6.63;;;3.85;;
60239;SDS011;46102;39.012;-7.064;2023-01-01T03:37:04;3.20;;;2.90;;
60239;SDS011;46102;39.012;-7.064;2023-01-01T03:39:09;8.15;;;2.70;;
60239;SDS011;46102;39.012;-7.064;2023-01-01T03:41:19;9.23;;;3.47;;
60239;SDS011;46102;39.012;-7.064;2023-01-01T03:43:32;8.15;;;2.97;;
60239;SDS011;46102;39.012;-7.064;2023-01-01T03:45:35;5.93;;;2.85;;
60239;SDS011;46102;39.012;-7.064;2023-01-01T03:47:39;8.90;;;3.63;;
60239;SDS011;46102;39.012;-7.064;2023-01-01T03:49:39;6.18;;;3.10;;
60239;SDS011;46102;39.012;-7.064;2023-01-01T03:53:55;10.63;;;3.53;;
60239;SDS011;46102;39.012;-7.064;2023-01-01T03:56:15;4.93;;;2.63;;
60239;SDS011;46102;39.012;-7.064;2023-01-01T03:58:26;6.20;;;2.75;;
60239;SDS011;46102;39.012;-7.064;2023-01-01T04:00:36;4.18;;;2.90;;
60239;SDS011;46102;39.012;-7.064;2023-01-01T04:04:47;6.03;;;3.05;;
60239;SDS011;46102;39.012;-7.064;2023-01-01T04:06:49;9.90;;;3.33;;
60239;SDS011;46102;39.012;-7.064;2023-01-01T04:08:50;15.20;;;3.85;;
60239;SDS011;46102;39.012;-7.064;2023-01-01T04:10:55;14.23;;;4.30;;
60239;SDS011;46102;39.012;-7.064;2023-01-01T04:12:57;5.38;;;2.83;;
60239;SDS011;46102;39.012;-7.064;2023-01-01T04:15:02;7.50;;;3.95;;
60239;SDS011;46102;39.012;-7.064;2023-01-01T04:17:06;12.10;;;3.55;;
60239;SDS011;46102;39.012;-7.064;2023-01-01T04:19:08;14.35;;;4.60;;
60239;SDS011;46102;39.012;-7.064;2023-01-01T04:21:10;5.57;;;3.25;;
60239;SDS011;46102;39.012;-7.064;2023-01-01T04:23:11;5.30;;;4.10;;
60239;SDS011;46102;39.012;-7.064;2023-01-01T04:25:12;7.22;;;2.97;;
60239;SDS011;46102;39.012;-7.064;2023-01-01T04:27:14;6.93;;;2.78;;
60239;SDS011;46102;39.012;-7.064;2023-01-01T04:29:15;7.35;;;2.67;;
60239;SDS011;46102;39.012;-7.064;2023-01-01T04:31:16;11.50;;;4.15;;
60239;SDS011;46102;39.012;-7.064;2023-01-01T04:33:16;10.85;;;3.50;;
60239;SDS011;46102;39.012;-7.064;2023-01-01T04:35:17;9.02;;;3.75;;
60239;SDS011;46102;39.012;-7.064;2023-01-01T04:37:18;6.25;;;4.10;;
60239;SDS011;46102;39.012;-7.064;2023-01-01T04:39:18;7.10;;;2.75;;
60239;SDS011;46102;39.012;-7.064;2023-01-01T04:41:19;3.33;;;2.95;;
60239;SDS011;46102;39.012;-7.064;2023-01-01T04:43:20;7.75;;;2.38;;
60239;SDS011;46102;39.012;-7.064;2023-01-01T04:45:21;5.22;;;2.90;;
60239;SDS011;46102;39.012;-7.064;2023-01-01T04:47:21;6.13;;;3.72;;
60239;SDS011;46102;39.012;-7.064;2023-01-01T04:49:22;9.32;;;3.65;;
60239;SDS011;46102;39.012;-7.064;2023-01-01T04:51:23;7.10;;;3.92;;
60239;SDS011;46102;39.012;-7.064;2023-01-01T04:53:24;13.77;;;4.60;;
60239;SDS011;46102;39.012;-7.064;2023-01-01T04:55:27;16.10;;;7.53;;
60239;SDS011;46102;39.012;-7.064;2023-01-01T04:57:29;12.73;;;4.35;;
60239;SDS011;46102;39.012;-7.064;2023-01-01T04:59:30;12.52;;;4.65;;
60239;SDS011;46102;39.012;-7.064;2023-01-01T05:01:31;11.65;;;5.30;;
60239;SDS011;46102;39.012;-7.064;2023-01-01T05:03:32;13.88;;;6.00;;
60239;SDS011;46102;39.012;-7.064;2023-01-01T05:05:33;13.35;;;7.32;;
60239;SDS011;46102;39.012;-7.064;2023-01-01T05:07:33;15.40;;;7.10;;
60239;SDS011;46102;39.012;-7.064;2023-01-01T05:09:34;10.07;;;5.13;;
60239;SDS011;46102;39.012;-7.064;2023-01-01T05:11:35;10.18;;;4.80;;
60239;SDS011;46102;39.012;-7.064;2023-01-01T05:13:36;5.70;;;3.13;;
60239;SDS011;46102;39.012;-7.064;2023-01-01T05:15:39;7.45;;;4.68;;
60239;SDS011;46102;39.012;-7.064;2023-01-01T05:17:39;11.25;;;6.20;;
60239;SDS011;46102;39.012;-7.064;2023-01-01T05:19:40;8.65;;;4.80;;
60239;SDS011;46102;39.012;-7.064;2023-01-01T05:21:41;10.55;;;4.43;;
60239;SDS011;46102;39.012;-7.064;2023-01-01T05:23:42;11.48;;;6.88;;
60239;SDS011;46102;39.012;-7.064;2023-01-01T05:25:43;14.40;;;6.80;;
60239;SDS011;46102;39.012;-7.064;2023-01-01T05:27:43;24.35;;;9.80;;
60239;SDS011;46102;39.012;-7.064;2023-01-01T05:29:44;15.50;;;10.13;;
60239;SDS011;46102;39.012;-7.064;2023-01-01T05:31:45;8.05;;;2.90;;
60239;SDS011;46102;39.012;-7.064;2023-01-01T05:33:46;4.63;;;2.35;;
60239;SDS011;46102;39.012;-7.064;2023-01-01T05:35:51;5.03;;;2.45;;
60239;SDS011;46102;39.012;-7.064;2023-01-01T05:37:54;3.63;;;2.58;;
60239;SDS011;46102;39.012;-7.064;2023-01-01T05:39:54;5.05;;;2.53;;
60239;SDS011;46102;39.012;-7.064;2023-01-01T05:41:55;7.45;;;3.15;;
60239;SDS011;46102;39.012;-7.064;2023-01-01T05:43:56;9.50;;;2.90;;
60239;SDS011;46102;39.012;-7.064;2023-01-01T05:46:03;12.25;;;3.15;;
60239;SDS011;46102;39.012;-7.064;2023-01-01T05:48:06;3.08;;;2.75;;
60239;SDS011;46102;39.012;-7.064;2023-01-01T05:50:06;5.38;;;2.58;;
60239;SDS011;46102;39.012;-7.064;2023-01-01T05:52:08;20.80;;;6.05;;
60239;SDS011;46102;39.012;-7.064;2023-01-01T05:54:08;13.65;;;7.00;;
60239;SDS011;46102;39.012;-7.064;2023-01-01T05:56:10;12.65;;;6.40;;
60239;SDS011;46102;39.012;-7.064;2023-01-01T05:58:12;10.18;;;5.90;;
60239;SDS011;46102;39.012;-7.064;2023-01-01T06:00:12;14.65;;;7.63;;
60239;SDS011;46102;39.012;-7.064;2023-01-01T06:02:14;10.82;;;5.78;;
60239;SDS011;46102;39.012;-7.064;2023-01-01T06:04:14;6.88;;;4.38;;
60239;SDS011;46102;39.012;-7.064;2023-01-01T06:06:17;13.55;;;4.88;;
60239;SDS011;46102;39.012;-7.064;2023-01-01T06:08:20;18.75;;;8.73;;
60239;SDS011;46102;39.012;-7.064;2023-01-01T06:10:20;15.23;;;11.23;;
60239;SDS011;46102;39.012;-7.064;2023-01-01T06:12:21;15.13;;;7.57;;
60239;SDS011;46102;39.012;-7.064;2023-01-01T06:14:22;9.00;;;4.78;;
60239;SDS011;46102;39.012;-7.064;2023-01-01T06:16:23;7.15;;;4.13;;
60239;SDS011;46102;39.012;-7.064;2023-01-01T06:18:24;5.88;;;3.97;;
60239;SDS011;46102;39.012;-7.064;2023-01-01T06:20:28;8.45;;;4.35;;
60239;SDS011;46102;39.012;-7.064;2023-01-01T06:22:28;7.38;;;4.45;;
60239;SDS011;46102;39.012;-7.064;2023-01-01T06:24:29;9.38;;;3.65;;
60239;SDS011;46102;39.012;-7.064;2023-01-01T06:26:31;8.15;;;3.42;;
60239;SDS011;46102;39.012;-7.064;2023-01-01T06:28:33;5.60;;;4.07;;
60239;SDS011;46102;39.012;-7.064;2023-01-01T06:30:35;7.88;;;3.53;;
60239;SDS011;46102;39.012;-7.064;2023-01-01T06:32:36;3.80;;;3.13;;
60239;SDS011;46102;39.012;-7.064;2023-01-01T06:34:37;6.00;;;3.28;;
60239;SDS011;46102;39.012;-7.064;2023-01-01T06:36:37;7.13;;;4.15;;
60239;SDS011;46102;39.012;-7.064;2023-01-01T06:38:44;10.32;;;3.05;;
60239;SDS011;46102;39.012;-7.064;2023-01-01T06:40:59;7.00;;;3.78;;
60239;SDS011;46102;39.012;-7.064;2023-01-01T06:43:02;7.00;;;2.70;;
60239;SDS011;46102;39.012;-7.064;2023-01-01T06:45:03;4.47;;;2.58;;
60239;SDS011;46102;39.012;-7.064;2023-01-01T06:47:04;4.63;;;2.60;;
60239;SDS011;46102;39.012;-7.064;2023-01-01T06:49:06;6.10;;;3.20;;
60239;SDS011;46102;39.012;-7.064;2023-01-01T06:51:12;10.65;;;3.28;;
60239;SDS011;46102;39.012;-7.064;2023-01-01T06:53:15;4.53;;;3.45;;
60239;SDS011;46102;39.012;-7.064;2023-01-01T06:55:16;5.28;;;2.83;;
60239;SDS011;46102;39.012;-7.064;2023-01-01T06:57:17;6.78;;;3.20;;
60239;SDS011;46102;39.012;-7.064;2023-01-01T06:59:17;7.32;;;2.97;;
60239;SDS011;46102;39.012;-7.064;2023-01-01T07:01:19;8.25;;;2.70;;
60239;SDS011;46102;39.012;-7.064;2023-01-01T07:03:22;9.20;;;3.03;;
60239;SDS011;46102;39.012;-7.064;2023-01-01T07:05:22;3.97;;;2.47;;
60239;SDS011;46102;39.012;-7.064;2023-01-01T07:07:23;7.18;;;3.53;;
60239;SDS011;46102;39.012;-7.064;2023-01-01T07:09:24;7.68;;;2.85;;
60239;SDS011;46102;39.012;-7.064;2023-01-01T07:11:25;7.20;;;2.72;;
60239;SDS011;46102;39.012;-7.064;2023-01-01T07:13:27;6.00;;;2.60;;
60239;SDS011;46102;39.012;-7.064;2023-01-01T07:15:29;2.55;;;2.05;;
60239;SDS011;46102;39.012;-7.064;2023-01-01T07:17:30;8.00;;;2.75;;
60239;SDS011;46102;39.012;-7.064;2023-01-01T07:19:31;4.07;;;2.60;;
60239;SDS011;46102;39.012;-7.064;2023-01-01T07:21:33;9.30;;;2.85;;
60239;SDS011;46102;39.012;-7.064;2023-01-01T07:23:53;15.50;;;3.40;;
60239;SDS011;46102;39.012;-7.064;2023-01-01T07:25:55;4.47;;;2.75;;
60239;SDS011;46102;39.012;-7.064;2023-01-01T07:27:56;3.70;;;2.50;;
60239;SDS011;46102;39.012;-7.064;2023-01-01T07:29:57;3.65;;;2.53;;
60239;SDS011;46102;39.012;-7.064;2023-01-01T07:31:58;4.03;;;2.33;;
60239;SDS011;46102;39.012;-7.064;2023-01-01T07:33:59;10.10;;;2.65;;
60239;SDS011;46102;39.012;-7.064;2023-01-01T07:36:00;4.13;;;2.47;;
60239;SDS011;46102;39.012;-7.064;2023-01-01T07:38:01;3.80;;;2.30;;
60239;SDS011;46102;39.012;-7.064;2023-01-01T07:40:02;2.53;;;2.08;;
60239;SDS011;46102;39.012;-7.064;2023-01-01T07:42:03;5.50;;;2.10;;
60239;SDS011;46102;39.012;-7.064;2023-01-01T07:44:04;12.73;;;3.38;;
60239;SDS011;46102;39.012;-7.064;2023-01-01T07:46:05;6.95;;;2.67;;
60239;SDS011;46102;39.012;-7.064;2023-01-01T07:48:06;3.28;;;2.63;;
60239;SDS011;46102;39.012;-7.064;2023-01-01T07:50:15;2.97;;;2.13;;
60239;SDS011;46102;39.012;-7.064;2023-01-01T07:52:17;5.80;;;2.63;;
60239;SDS011;46102;39.012;-7.064;2023-01-01T07:54:18;12.32;;;2.65;;
60239;SDS011;46102;39.012;-7.064;2023-01-01T07:56:19;6.50;;;1.88;;
60239;SDS011;46102;39.012;-7.064;2023-01-01T07:58:19;5.25;;;2.08;;
60239;SDS011;46102;39.012;-7.064;2023-01-01T08:00:22;2.97;;;2.65;;
60239;SDS011;46102;39.012;-7.064;2023-01-01T08:02:24;3.58;;;2.20;;
60239;SDS011;46102;39.012;-7.064;2023-01-01T08:04:24;7.22;;;2.35;;
60239;SDS011;46102;39.012;-7.064;2023-01-01T08:06:28;6.17;;;2.47;;
60239;SDS011;46102;39.012;-7.064;2023-01-01T08:08:29;7.82;;;2.00;;
60239;SDS011;46102;39.012;-7.064;2023-01-01T08:10:29;6.05;;;2.20;;
60239;SDS011;46102;39.012;-7.064;2023-01-01T08:12:30;4.35;;;2.47;;
60239;SDS011;46102;39.012;-7.064;2023-01-01T08:14:31;4.50;;;2.70;;
60239;SDS011;46102;39.012;-7.064;2023-01-01T08:16:32;4.18;;;2.72;;
60239;SDS011;46102;39.012;-7.064;2023-01-01T08:18:32;3.97;;;1.95;;
60239;SDS011;46102;39.012;-7.064;2023-01-01T08:20:33;6.15;;;2.13;;
60239;SDS011;46102;39.012;-7.064;2023-01-01T08:22:36;6.82;;;2.47;;
60239;SDS011;46102;39.012;-7.064;2023-01-01T08:24:37;9.82;;;2.80;;
60239;SDS011;46102;39.012;-7.064;2023-01-01T08:26:38;3.17;;;2.15;;
60239;SDS011;46102;39.012;-7.064;2023-01-01T08:28:39;3.10;;;2.35;;
60239;SDS011;46102;39.012;-7.064;2023-01-01T08:30:39;11.68;;;2.60;;
60239;SDS011;46102;39.012;-7.064;2023-01-01T08:32:40;4.70;;;2.58;;
60239;SDS011;46102;39.012;-7.064;2023-01-01T08:34:41;13.10;;;3.78;;
60239;SDS011;46102;39.012;-7.064;2023-01-01T08:36:42;9.70;;;3.00;;
60239;SDS011;46102;39.012;-7.064;2023-01-01T08:38:42;6.32;;;2.65;;
60239;SDS011;46102;39.012;-7.064;2023-01-01T08:40:43;16.08;;;2.78;;
60239;SDS011;46102;39.012;-7.064;2023-01-01T08:42:44;3.05;;;2.28;;
60239;SDS011;46102;39.012;-7.064;2023-01-01T08:44:45;6.82;;;2.92;;
60239;SDS011;46102;39.012;-7.064;2023-01-01T08:46:46;7.43;;;2.75;;
60239;SDS011;46102;39.012;-7.064;2023-01-01T08:48:47;7.43;;;2.90;;
60239;SDS011;46102;39.012;-7.064;2023-01-01T08:50:53;10.23;;;2.30;;
60239;SDS011;46102;39.012;-7.064;2023-01-01T08:52:56;3.45;;;2.60;;
60239;SDS011;46102;39.012;-7.064;2023-01-01T08:54:58;4.43;;;2.42;;
60239;SDS011;46102;39.012;-7.064;2023-01-01T08:57:00;4.13;;;2.63;;
60239;SDS011;46102;39.012;-7.064;2023-01-01T08:59:00;8.88;;;3.10;;
60239;SDS011;46102;39.012;-7.064;2023-01-01T09:01:01;8.02;;;2.75;;
60239;SDS011;46102;39.012;-7.064;2023-01-01T09:03:03;3.38;;;2.83;;
60239;SDS011;46102;39.012;-7.064;2023-01-01T09:05:03;4.13;;;2.60;;
60239;SDS011;46102;39.012;-7.064;2023-01-01T09:07:04;3.42;;;1.83;;
60239;SDS011;46102;39.012;-7.064;2023-01-01T09:09:05;5.50;;;1.92;;
60239;SDS011;46102;39.012;-7.064;2023-01-01T09:11:06;3.75;;;2.08;;
60239;SDS011;46102;39.012;-7.064;2023-01-01T09:13:07;6.50;;;2.47;;
60239;SDS011;46102;39.012;-7.064;2023-01-01T09:15:12;11.98;;;2.42;;
60239;SDS011;46102;39.012;-7.064;2023-01-01T09:17:16;2.42;;;2.03;;
60239;SDS011;46102;39.012;-7.064;2023-01-01T09:19:16;5.50;;;2.45;;
60239;SDS011;46102;39.012;-7.064;2023-01-01T09:21:17;6.45;;;2.42;;
60239;SDS011;46102;39.012;-7.064;2023-01-01T09:23:18;3.85;;;2.15;;
60239;SDS011;46102;39.012;-7.064;2023-01-01T09:25:19;4.55;;;2.38;;
60239;SDS011;46102;39.012;-7.064;2023-01-01T09:27:19;3.10;;;2.80;;
60239;SDS011;46102;39.012;-7.064;2023-01-01T09:29:20;3.35;;;2.45;;
60239;SDS011;46102;39.012;-7.064;2023-01-01T09:31:21;5.97;;;2.65;;
60239;SDS011;46102;39.012;-7.064;2023-01-01T09:33:22;4.63;;;2.22;;
60239;SDS011;46102;39.012;-7.064;2023-01-01T09:35:22;8.43;;;3.00;;
60239;SDS011;46102;39.012;-7.064;2023-01-01T09:37:23;7.45;;;2.17;;
60239;SDS011;46102;39.012;-7.064;2023-01-01T09:39:24;7.07;;;2.55;;
60239;SDS011;46102;39.012;-7.064;2023-01-01T09:46:00;7.45;;;4.25;;
60239;SDS011;46102;39.012;-7.064;2023-01-01T09:48:09;6.40;;;3.60;;
60239;SDS011;46102;39.012;-7.064;2023-01-01T09:50:14;5.20;;;3.15;;
60239;SDS011;46102;39.012;-7.064;2023-01-01T09:52:18;8.95;;;4.60;;
60239;SDS011;46102;39.012;-7.064;2023-01-01T09:56:24;5.70;;;3.38;;
60239;SDS011;46102;39.012;-7.064;2023-01-01T09:58:30;5.78;;;4.50;;
60239;SDS011;46102;39.012;-7.064;2023-01-01T10:00:34;6.93;;;4.75;;
60239;SDS011;46102;39.012;-7.064;2023-01-01T10:02:52;11.27;;;4.78;;
60239;SDS011;46102;39.012;-7.064;2023-01-01T10:13:56;6.28;;;3.63;;
60239;SDS011;46102;39.012;-7.064;2023-01-01T10:18:16;4.83;;;2.03;;
60239;SDS011;46102;39.012;-7.064;2023-01-01T10:20:31;3.03;;;1.67;;
60239;SDS011;46102;39.012;-7.064;2023-01-01T10:22:39;6.07;;;1.77;;
60239;SDS011;46102;39.012;-7.064;2023-01-01T10:25:02;5.55;;;1.80;;
60239;SDS011;46102;39.012;-7.064;2023-01-01T10:27:23;2.20;;;1.92;;
60239;SDS011;46102;39.012;-7.064;2023-01-01T10:29:35;3.42;;;1.65;;
60239;SDS011;46102;39.012;-7.064;2023-01-01T10:31:38;3.45;;;1.50;;
60239;SDS011;46102;39.012;-7.064;2023-01-01T10:33:43;2.17;;;1.10;;
60239;SDS011;46102;39.012;-7.064;2023-01-01T10:35:47;3.83;;;1.63;;
60239;SDS011;46102;39.012;-7.064;2023-01-01T10:37:51;3.65;;;1.95;;
60239;SDS011;46102;39.012;-7.064;2023-01-01T10:39:52;2.42;;;1.20;;
60239;SDS011;46102;39.012;-7.064;2023-01-01T10:41:52;6.43;;;2.17;;
60239;SDS011;46102;39.012;-7.064;2023-01-01T10:43:53;6.97;;;1.45;;
60239;SDS011;46102;39.012;-7.064;2023-01-01T10:45:54;2.22;;;1.50;;
60239;SDS011;46102;39.012;-7.064;2023-01-01T10:48:09;2.88;;;1.98;;
60239;SDS011;46102;39.012;-7.064;2023-01-01T10:50:11;2.05;;;1.85;;
60239;SDS011;46102;39.012;-7.064;2023-01-01T10:52:14;3.08;;;1.70;;
60239;SDS011;46102;39.012;-7.064;2023-01-01T10:54:30;3.65;;;1.58;;
60239;SDS011;46102;39.012;-7.064;2023-01-01T10:56:39;4.20;;;1.50;;
60239;SDS011;46102;39.012;-7.064;2023-01-01T11:00:56;3.38;;;1.73;;
60239;SDS011;46102;39.012;-7.064;2023-01-01T11:09:30;7.43;;;4.40;;
60239;SDS011;46102;39.012;-7.064;2023-01-01T11:11:35;6.47;;;3.13;;
60239;SDS011;46102;39.012;-7.064;2023-01-01T11:13:42;12.65;;;6.15;;
60239;SDS011;46102;39.012;-7.064;2023-01-01T11:15:42;16.90;;;8.02;;
60239;SDS011;46102;39.012;-7.064;2023-01-01T11:17:43;27.75;;;13.75;;
60239;SDS011;46102;39.012;-7.064;2023-01-01T11:19:46;9.48;;;5.80;;
60239;SDS011;46102;39.012;-7.064;2023-01-01T11:21:49;4.45;;;2.72;;
60239;SDS011;46102;39.012;-7.064;2023-01-01T11:24:08;9.20;;;3.92;;
60239;SDS011;46102;39.012;-7.064;2023-01-01T11:28:19;5.20;;;1.75;;
60239;SDS011;46102;39.012;-7.064;2023-01-01T11:32:26;4.90;;;3.25;;
60239;SDS011;46102;39.012;-7.064;2023-01-01T11:34:37;4.10;;;2.05;;
60239;SDS011;46102;39.012;-7.064;2023-01-01T11:36:40;6.43;;;1.95;;
60239;SDS011;46102;39.012;-7.064;2023-01-01T11:38:41;5.78;;;2.00;;
60239;SDS011;46102;39.012;-7.064;2023-01-01T11:40:45;7.25;;;1.83;;
60239;SDS011;46102;39.012;-7.064;2023-01-01T11:42:56;4.85;;;1.98;;
60239;SDS011;46102;39.012;-7.064;2023-01-01T11:45:00;7.82;;;2.58;;
60239;SDS011;46102;39.012;-7.064;2023-01-01T11:47:22;4.13;;;1.42;;
60239;SDS011;46102;39.012;-7.064;2023-01-01T11:49:39;2.15;;;1.73;;
60239;SDS011;46102;39.012;-7.064;2023-01-01T11:51:39;4.70;;;2.17;;
60239;SDS011;46102;39.012;-7.064;2023-01-01T11:53:41;7.78;;;2.10;;
60239;SDS011;46102;39.012;-7.064;2023-01-01T11:55:45;7.53;;;2.08;;
60239;SDS011;46102;39.012;-7.064;2023-01-01T11:57:51;3.92;;;2.08;;
60239;SDS011;46102;39.012;-7.064;2023-01-01T11:59:57;7.05;;;2.75;;
60239;SDS011;46102;39.012;-7.064;2023-01-01T12:02:02;1.88;;;1.60;;
60239;SDS011;46102;39.012;-7.064;2023-01-01T12:04:13;5.90;;;1.73;;
60239;SDS011;46102;39.012;-7.064;2023-01-01T12:08:41;5.07;;;1.60;;
60239;SDS011;46102;39.012;-7.064;2023-01-01T12:10:52;5.32;;;1.73;;
60239;SDS011;46102;39.012;-7.064;2023-01-01T12:13:05;11.10;;;3.10;;
60239;SDS011;46102;39.012;-7.064;2023-01-01T12:15:32;8.63;;;2.10;;
60239;SDS011;46102;39.012;-7.064;2023-01-01T12:17:38;5.18;;;1.90;;
60239;SDS011;46102;39.012;-7.064;2023-01-01T12:21:57;8.95;;;2.55;;
60239;SDS011;46102;39.012;-7.064;2023-01-01T12:23:59;9.02;;;1.80;;
60239;SDS011;46102;39.012;-7.064;2023-01-01T12:28:42;4.43;;;1.58;;
60239;SDS011;46102;39.012;-7.064;2023-01-01T12:33:18;8.50;;;2.70;;
60239;SDS011;46102;39.012;-7.064;2023-01-01T12:40:42;5.53;;;1.98;;
60239;SDS011;46102;39.012;-7.064;2023-01-01T12:56:48;9.63;;;2.28;;
60239;SDS011;46102;39.012;-7.064;2023-01-01T12:59:17;5.80;;;1.65;;
60239;SDS011;46102;39.012;-7.064;2023-01-01T13:05:56;3.47;;;1.60;;
60239;SDS011;46102;39.012;-7.064;2023-01-01T13:07:59;5.47;;;2.28;;
60239;SDS011;46102;39.012;-7.064;2023-01-01T13:10:06;6.55;;;1.83;;
60239;SDS011;46102;39.012;-7.064;2023-01-01T13:12:20;13.30;;;2.80;;
60239;SDS011;46102;39.012;-7.064;2023-01-01T13:14:23;6.63;;;1.88;;
60239;SDS011;46102;39.012;-7.064;2023-01-01T13:18:38;9.23;;;3.25;;
60239;SDS011;46102;39.012;-7.064;2023-01-01T13:20:39;8.43;;;2.88;;
60239;SDS011;46102;39.012;-7.064;2023-01-01T13:22:43;2.78;;;1.77;;
60239;SDS011;46102;39.012;-7.064;2023-01-01T13:25:00;5.30;;;2.20;;
60239;SDS011;46102;39.012;-7.064;2023-01-01T13:27:05;10.57;;;2.40;;
60239;SDS011;46102;39.012;-7.064;2023-01-01T13:31:12;8.23;;;1.90;;
60239;SDS011;46102;39.012;-7.064;2023-01-01T13:33:17;9.65;;;4.07;;
60239;SDS011;46102;39.012;-7.064;2023-01-01T13:35:24;11.10;;;3.08;;
60239;SDS011;46102;39.012;-7.064;2023-01-01T13:37:29;5.60;;;2.20;;
60239;SDS011;46102;39.012;-7.064;2023-01-01T13:44:42;13.15;;;2.85;;
60239;SDS011;46102;39.012;-7.064;2023-01-01T13:48:54;3.88;;;2.30;;
60239;SDS011;46102;39.012;-7.064;2023-01-01T13:54:00;6.40;;;2.13;;
60239;SDS011;46102;39.012;-7.064;2023-01-01T13:59:04;8.98;;;2.22;;
60239;SDS011;46102;39.012;-7.064;2023-01-01T14:01:17;6.93;;;1.30;;